Time;durP1;ratioP1;P1;durP2;ratioP2;P2;SDS_P1;SDS_P2;PMS_P1;PMS_P2;Temp;Humidity;BMP_temperature;BMP_pressure;BME280_temperature;BME280_humidity;BME280_pressure;Samples;Min_cycle;Max_cycle;Signal;HPM_P1;HPM_P2
2022/12/16 00:01:15;;;;;;;58.55;27.92;;;;;;;;;;5105019;28;20485;-78
2022/12/16 00:03:46;;;;;;;56.97;27.70;;;;;;;;;;5109468;28;20592;-78
2022/12/16 00:06:17;;;;;;;55.72;27.58;;;;;;;;;;5106278;28;20084;-78
2022/12/16 00:08:44;;;;;;;59.50;26.55;;;;;;;;;;5090110;27;20058;-78
2022/12/16 00:11:13;;;;;;;59.90;26.77;;;;;;;;;;5128515;27;20048;-78
2022/12/16 00:13:41;;;;;;;59.38;26.48;;;;;;;;;;5101648;27;20056;-78
2022/12/16 00:16:12;;;;;;;57.42;25.75;;;;;;;;;;5093495;28;20520;-78
2022/12/16 00:18:39;;;;;;;52.10;26.38;;;;;;;;;;5103734;28;20063;-78
2022/12/16 00:21:06;;;;;;;59.85;28.55;;;;;;;;;;5088713;28;20612;-78
2022/12/16 00:23:34;;;;;;;57.88;27.08;;;;;;;;;;5070489;28;20064;-78
2022/12/16 00:26:01;;;;;;;60.90;25.83;;;;;;;;;;5092532;27;20534;-78
2022/12/16 00:28:30;;;;;;;55.20;27.05;;;;;;;;;;5088170;28;20060;-78
2022/12/16 00:30:57;;;;;;;61.85;28.33;;;;;;;;;;5089846;28;20056;-78
2022/12/16 00:33:24;;;;;;;63.90;28.42;;;;;;;;;;5107679;28;20047;-78
2022/12/16 00:35:51;;;;;;;60.08;27.95;;;;;;;;;;5108259;28;20052;-78
2022/12/16 00:38:18;;;;;;;56.10;27.25;;;;;;;;;;5113939;27;20511;-78
2022/12/16 00:40:45;;;;;;;59.15;27.15;;;;;;;;;;5108325;27;20063;-78
2022/12/16 00:43:11;;;;;;;62.90;28.15;;;;;;;;;;5088292;28;20526;-78
2022/12/16 00:45:38;;;;;;;56.60;26.63;;;;;;;;;;5089756;28;20056;-78
2022/12/16 00:48:05;;;;;;;58.45;26.73;;;;;;;;;;5088138;28;20064;-78
2022/12/16 00:50:31;;;;;;;55.63;27.45;;;;;;;;;;5087883;28;20243;-78
2022/12/16 00:52:58;;;;;;;58.35;26.20;;;;;;;;;;5088047;28;20059;-78
2022/12/16 00:55:24;;;;;;;60.00;27.10;;;;;;;;;;5088148;28;20139;-78
2022/12/16 00:57:51;;;;;;;59.00;26.60;;;;;;;;;;5086175;28;20138;-78
2022/12/16 01:00:17;;;;;;;63.97;26.92;;;;;;;;;;5097710;28;20059;-78
2022/12/16 01:02:48;;;;;;;56.58;25.83;;;;;;;;;;5087633;28;20064;-78
2022/12/16 01:05:16;;;;;;;57.75;27.02;;;;;;;;;;5069977;28;20055;-78
2022/12/16 01:07:42;;;;;;;53.53;25.38;;;;;;;;;;5092736;28;20056;-78
2022/12/16 01:10:10;;;;;;;57.85;26.35;;;;;;;;;;5107558;28;20144;-78
2022/12/16 01:12:36;;;;;;;57.10;27.20;;;;;;;;;;5122814;27;20704;-78
2022/12/16 01:15:04;;;;;;;53.38;26.40;;;;;;;;;;5093552;28;20063;-78
2022/12/16 01:17:30;;;;;;;58.88;26.17;;;;;;;;;;5089881;28;20159;-78
2022/12/16 01:19:57;;;;;;;62.97;27.85;;;;;;;;;;5107231;28;20048;-78
2022/12/16 01:22:23;;;;;;;62.10;27.17;;;;;;;;;;5104416;28;20427;-78
2022/12/16 01:24:50;;;;;;;58.03;26.05;;;;;;;;;;5108202;28;20078;-77
2022/12/16 01:27:16;;;;;;;56.65;27.42;;;;;;;;;;5107692;27;20178;-77
2022/12/16 01:29:43;;;;;;;60.95;26.17;;;;;;;;;;5069655;28;20508;-78
2022/12/16 01:32:12;;;;;;;61.03;27.52;;;;;;;;;;5086871;28;20041;-78
2022/12/16 01:34:39;;;;;;;60.23;28.27;;;;;;;;;;5086812;28;20060;-78
2022/12/16 01:37:05;;;;;;;63.05;28.75;;;;;;;;;;5087727;28;20576;-78
2022/12/16 01:39:32;;;;;;;61.75;28.67;;;;;;;;;;5092381;28;20058;-78
2022/12/16 01:41:58;;;;;;;63.67;28.23;;;;;;;;;;5105152;28;20051;-78
2022/12/16 01:44:25;;;;;;;61.45;27.85;;;;;;;;;;5106677;27;20079;-78
2022/12/16 01:46:58;;;;;;;67.05;28.70;;;;;;;;;;5101792;28;20056;-78
2022/12/16 01:49:32;;;;;;;61.88;29.50;;;;;;;;;;5106859;28;20498;-78
2022/12/16 01:52:01;;;;;;;63.80;28.77;;;;;;;;;;5107686;28;20491;-78
2022/12/16 01:54:29;;;;;;;60.65;28.70;;;;;;;;;;5099478;28;20435;-78
2022/12/16 01:56:59;;;;;;;65.78;28.48;;;;;;;;;;5100607;27;20151;-78
2022/12/16 01:59:27;;;;;;;64.10;28.00;;;;;;;;;;5094293;28;20083;-78
2022/12/16 02:01:53;;;;;;;62.30;28.65;;;;;;;;;;5086932;28;20064;-78
2022/12/16 02:04:20;;;;;;;56.97;28.80;;;;;;;;;;5086719;28;20131;-78
2022/12/16 02:06:47;;;;;;;58.42;28.33;;;;;;;;;;5086088;28;20568;-78
2022/12/16 02:09:14;;;;;;;59.97;28.63;;;;;;;;;;5104989;28;20152;-78
2022/12/16 02:11:49;;;;;;;62.35;29.85;;;;;;;;;;5099545;28;20473;-78
2022/12/16 02:14:28;;;;;;;66.30;29.88;;;;;;;;;;5096374;27;20055;-78
2022/12/16 02:17:03;;;;;;;70.15;29.80;;;;;;;;;;5088151;28;20135;-78
2022/12/16 02:19:48;;;;;;;65.40;30.70;;;;;;;;;;5102225;28;20056;-78
2022/12/16 02:22:29;;;;;;;64.25;29.95;;;;;;;;;;5069609;28;20060;-78
2022/12/16 02:25:14;;;;;;;57.30;27.42;;;;;;;;;;5087727;28;20045;-78
2022/12/16 02:27:44;;;;;;;63.15;28.92;;;;;;;;;;5104108;28;20095;-77
2022/12/16 02:30:22;;;;;;;71.60;29.63;;;;;;;;;;5117120;27;20835;-78
2022/12/16 02:32:48;;;;;;;65.97;27.98;;;;;;;;;;5111995;27;20052;-78
2022/12/16 02:35:18;;;;;;;59.58;27.95;;;;;;;;;;5119530;27;20529;-78
2022/12/16 02:38:03;;;;;;;63.97;28.83;;;;;;;;;;5109381;28;20117;-78
2022/12/16 02:40:37;;;;;;;65.20;28.23;;;;;;;;;;5110518;28;20060;-78
2022/12/16 02:43:07;;;;;;;67.07;29.23;;;;;;;;;;5110551;28;20145;-78
2022/12/16 02:45:34;;;;;;;63.97;28.40;;;;;;;;;;5096851;28;20313;-78
2022/12/16 02:48:01;;;;;;;56.60;28.08;;;;;;;;;;5102725;27;20141;-78
2022/12/16 02:50:48;;;;;;;61.15;28.45;;;;;;;;;;5109047;28;20052;-78
2022/12/16 02:53:14;;;;;;;57.25;27.85;;;;;;;;;;5104084;28;20060;-78
2022/12/16 02:55:43;;;;;;;60.80;27.50;;;;;;;;;;5107569;28;20146;-78
2022/12/16 02:58:12;;;;;;;52.20;26.00;;;;;;;;;;5110814;27;20053;-78
2022/12/16 03:00:54;;;;;;;60.47;26.95;;;;;;;;;;5110017;28;20052;-78
2022/12/16 03:03:29;;;;;;;54.88;26.42;;;;;;;;;;5109961;27;20067;-78
2022/12/16 03:05:57;;;;;;;62.60;28.20;;;;;;;;;;5125269;27;20465;-78
2022/12/16 03:08:27;;;;;;;58.03;25.92;;;;;;;;;;5088999;28;20400;-78
2022/12/16 03:10:56;;;;;;;60.28;27.45;;;;;;;;;;5089261;28;20052;-78
2022/12/16 03:13:23;;;;;;;62.78;28.55;;;;;;;;;;5091951;28;20092;-78
2022/12/16 03:15:51;;;;;;;61.85;26.33;;;;;;;;;;5108074;28;20054;-78
2022/12/16 03:18:19;;;;;;;59.58;27.10;;;;;;;;;;5107098;28;20509;-79
2022/12/16 03:20:57;;;;;;;52.92;25.75;;;;;;;;;;5099658;27;20051;-78
2022/12/16 03:23:30;;;;;;;52.72;25.30;;;;;;;;;;5104661;27;20114;-78
2022/12/16 03:26:00;;;;;;;54.78;26.30;;;;;;;;;;5088492;28;20055;-79
2022/12/16 03:28:34;;;;;;;53.10;25.53;;;;;;;;;;5103784;28;20052;-78
2022/12/16 03:31:05;;;;;;;54.97;24.50;;;;;;;;;;5110081;28;20090;-78
2022/12/16 03:33:31;;;;;;;;;;;;;;;;;;5109519;28;20109;-79
2022/12/16 03:36:01;;;;;;;55.17;24.73;;;;;;;;;;5103512;27;43992;-79
2022/12/16 03:38:27;;;;;;;58.83;24.50;;;;;;;;;;5103751;28;20518;-79
2022/12/16 03:40:55;;;;;;;60.83;26.17;;;;;;;;;;5108973;28;20407;-78
2022/12/16 03:43:22;;;;;;;65.93;27.35;;;;;;;;;;5110083;28;20206;-78
2022/12/16 03:45:50;;;;;;;66.57;26.08;;;;;;;;;;5125945;27;20563;-78
2022/12/16 03:48:25;;;;;;;62.78;24.08;;;;;;;;;;5089045;28;20094;-79
2022/12/16 03:50:51;;;;;;;64.40;24.98;;;;;;;;;;5088268;28;20048;-78
2022/12/16 03:53:23;;;;;;;64.18;26.02;;;;;;;;;;5077912;28;20049;-78
2022/12/16 03:55:49;;;;;;;62.20;25.92;;;;;;;;;;5114767;27;20066;-78
2022/12/16 03:58:16;;;;;;;62.60;24.55;;;;;;;;;;5107211;28;20109;-78
2022/12/16 04:00:42;;;;;;;62.85;26.25;;;;;;;;;;5103272;28;20067;-78
2022/12/16 04:03:08;;;;;;;70.70;23.92;;;;;;;;;;5091254;28;20055;-78
2022/12/16 04:05:35;;;;;;;58.97;25.23;;;;;;;;;;5088056;28;20210;-78
2022/12/16 04:08:02;;;;;;;66.82;26.33;;;;;;;;;;5091743;27;20063;-78
2022/12/16 04:24:31;;;;;;;63.70;24.02;;;;;;;;;;5108965;27;20059;-78
2022/12/16 04:34:24;;;;;;;68.78;24.88;;;;;;;;;;5112178;27;20135;-79
